createdAt,value
2023-01-17T00:01:30.153Z,94008.91
2023-01-17T00:04:14.927Z,94015.09
2023-01-17T00:06:59.689Z,94010.16
2023-01-17T00:09:44.618Z,94006.63
2023-01-17T00:12:11.040Z,94006.16
2023-01-17T00:14:37.363Z,94006.75
2023-01-17T00:17:03.725Z,94016.34
2023-01-17T00:19:48.534Z,94014.72
2023-01-17T00:22:47.637Z,94008.41
2023-01-17T00:25:38.846Z,94010.31
2023-01-17T00:28:06.167Z,94000.22
2023-01-17T00:30:32.777Z,94007.91
2023-01-17T00:32:59.528Z,94011.50
2023-01-17T00:35:27.344Z,94008.63
2023-01-17T00:38:09.768Z,94008.84
2023-01-17T00:40:38.575Z,94005.53
2023-01-17T00:43:24.627Z,94007.34
2023-01-17T00:46:10.552Z,94006.13
2023-01-17T00:48:56.580Z,94007.41
2023-01-17T00:51:42.460Z,93991.72
2023-01-17T00:54:28.107Z,94003.66
2023-01-17T00:57:13.731Z,94004.34
2023-01-17T00:59:59.081Z,94001.16
2023-01-17T01:02:44.849Z,94018.06
2023-01-17T01:05:30.817Z,94012.66
2023-01-17T01:08:15.779Z,94017.44
2023-01-17T01:11:02.135Z,94006.78
2023-01-17T01:13:49.924Z,94014.66
2023-01-17T01:16:35.773Z,94006.84
2023-01-17T01:19:22.440Z,94015.56
2023-01-17T01:25:10.356Z,94005.78
2023-01-17T01:27:55.382Z,94007.34
2023-01-17T01:30:40.605Z,94008.38
2023-01-17T01:33:20.892Z,94007.41
2023-01-17T01:35:53.713Z,94008.38
2023-01-17T01:38:22.835Z,94010.38
2023-01-17T01:40:52.081Z,94014.47
2023-01-17T01:43:21.429Z,94009.75
2023-01-17T01:45:57.008Z,94001.66
2023-01-17T01:48:36.813Z,94007.47
2023-01-17T01:51:08.204Z,93999.31
2023-01-17T01:53:37.171Z,93994.88
2023-01-17T01:56:08.577Z,94006.22
2023-01-17T01:58:37.758Z,94001.06
2023-01-17T02:01:06.158Z,94010.06
2023-01-17T02:03:33.502Z,94001.91
2023-01-17T02:06:08.586Z,94004.91
2023-01-17T02:08:35.860Z,93992.38
2023-01-17T02:11:02.908Z,93990.84
2023-01-17T02:13:29.389Z,93984.03
2023-01-17T02:16:11.000Z,93976.75
2023-01-17T02:18:46.382Z,93977.38
2023-01-17T02:21:18.810Z,93983.53
2023-01-17T02:23:53.784Z,93974.59
2023-01-17T02:26:38.819Z,93976.81
2023-01-17T02:29:52.920Z,93973.72
2023-01-17T02:32:44.055Z,93965.44
2023-01-17T02:35:56.982Z,93963.22
2023-01-17T02:38:53.834Z,93955.19
2023-01-17T02:41:30.001Z,93952.28
2023-01-17T02:43:56.637Z,93951.88
2023-01-17T02:46:23.096Z,93949.97
2023-01-17T02:48:51.473Z,93946.47
2023-01-17T02:51:47.607Z,93949.38
2023-01-17T02:54:31.789Z,93949.34
2023-01-17T02:57:06.525Z,93954.47
2023-01-17T02:59:50.864Z,93948.97
2023-01-17T03:02:20.349Z,93933.25
2023-01-17T03:04:58.452Z,93924.06
2023-01-17T03:07:27.271Z,93927.34
2023-01-17T03:09:59.723Z,93926.00
2023-01-17T03:12:30.950Z,93929.91
2023-01-17T03:14:57.697Z,93933.69
2023-01-17T03:17:26.507Z,93923.06
2023-01-17T03:19:52.825Z,93915.38
2023-01-17T03:22:19.143Z,93915.28
2023-01-17T03:24:45.469Z,93910.47
2023-01-17T03:27:11.876Z,93915.31
2023-01-17T03:29:38.222Z,93914.03
2023-01-17T03:32:04.834Z,93915.00
2023-01-17T03:34:31.350Z,93914.38
2023-01-17T03:36:57.741Z,93908.91
2023-01-17T03:39:24.078Z,93908.16
2023-01-17T03:41:50.412Z,93909.16
2023-01-17T03:44:16.754Z,93911.59
2023-01-17T03:46:43.096Z,93908.66
2023-01-17T03:49:09.497Z,93904.78
2023-01-17T03:51:35.840Z,93900.88
2023-01-17T03:54:02.173Z,93909.91
2023-01-17T03:56:28.500Z,93908.09
2023-01-17T03:58:54.954Z,93906.81
2023-01-17T04:01:21.340Z,93902.50
2023-01-17T04:03:47.739Z,93901.66
2023-01-17T04:06:14.061Z,93896.84
2023-01-17T04:08:40.400Z,93893.28
2023-01-17T04:11:06.754Z,93884.22
2023-01-17T04:13:33.241Z,93885.81
2023-01-17T04:15:59.676Z,93887.16
2023-01-17T04:18:26.352Z,93883.88
2023-01-17T04:20:52.673Z,93880.66
2023-01-17T04:23:19.166Z,93869.31
2023-01-17T04:25:45.870Z,93863.44
2023-01-17T04:28:12.726Z,93861.53
2023-01-17T04:30:39.364Z,93864.28
2023-01-17T04:33:05.912Z,93863.13
2023-01-17T04:35:33.456Z,93856.63
2023-01-17T04:38:00.323Z,93848.72
2023-01-17T04:40:26.852Z,93841.72
2023-01-17T04:42:54.200Z,93836.69
2023-01-17T04:45:20.535Z,93825.34
2023-01-17T04:47:46.912Z,93824.66
2023-01-17T04:50:13.419Z,93821.91
2023-01-17T04:52:39.756Z,93820.16
2023-01-17T04:55:06.782Z,93815.78
2023-01-17T04:57:33.123Z,93807.97
2023-01-17T04:59:59.563Z,93808.47
2023-01-17T05:02:26.000Z,93800.53
2023-01-17T05:04:52.368Z,93802.63
2023-01-17T05:07:18.699Z,93790.78
2023-01-17T05:09:45.017Z,93797.47
2023-01-17T05:12:11.346Z,93799.25
2023-01-17T05:14:37.672Z,93801.03
2023-01-17T05:17:04.053Z,93801.03
2023-01-17T05:19:30.706Z,93796.00
2023-01-17T05:22:03.596Z,93791.66
2023-01-17T05:24:31.304Z,93783.53
2023-01-17T05:27:02.809Z,93798.31
2023-01-17T05:29:30.319Z,93786.81
2023-01-17T05:31:56.720Z,93787.94
2023-01-17T05:34:23.143Z,93786.31
2023-01-17T05:36:49.673Z,93783.53
2023-01-17T05:39:15.990Z,93791.81
2023-01-17T05:41:42.319Z,93779.88
2023-01-17T05:44:08.791Z,93777.78
2023-01-17T05:46:35.199Z,93784.25
2023-01-17T05:49:01.628Z,93782.00
2023-01-17T05:51:29.224Z,93783.78
2023-01-17T05:53:55.563Z,93785.09
2023-01-17T05:56:22.292Z,93787.03
2023-01-17T05:58:48.635Z,93797.41
2023-01-17T06:01:15.021Z,93784.59
2023-01-17T06:03:41.369Z,93788.97
2023-01-17T06:06:07.755Z,93789.28
2023-01-17T06:08:34.107Z,93789.44
2023-01-17T06:11:00.485Z,93788.97
2023-01-17T06:13:26.813Z,93788.81
2023-01-17T06:15:53.315Z,93780.53
2023-01-17T06:18:19.696Z,93775.84
2023-01-17T06:20:46.093Z,93776.69
2023-01-17T06:23:14.079Z,93774.09
2023-01-17T06:25:45.426Z,93779.25
2023-01-17T06:28:14.288Z,93776.19
2023-01-17T06:30:40.855Z,93767.28
2023-01-17T06:33:07.267Z,93760.97
2023-01-17T06:35:33.754Z,93755.63
2023-01-17T06:38:00.379Z,93745.59
2023-01-17T06:40:30.540Z,93742.66
2023-01-17T06:43:04.217Z,93741.69
2023-01-17T06:45:32.031Z,93738.16
2023-01-17T06:48:00.567Z,93737.16
2023-01-17T06:50:27.292Z,93728.72
2023-01-17T06:53:00.155Z,93723.88
2023-01-17T06:55:30.506Z,93716.44
2023-01-17T06:57:59.393Z,93722.56
2023-01-17T07:00:26.875Z,93723.72
2023-01-17T07:02:53.423Z,93727.44
2023-01-17T07:05:20.348Z,93724.53
2023-01-17T07:07:46.900Z,93721.47
2023-01-17T07:10:14.585Z,93718.06
2023-01-17T07:12:40.976Z,93723.41
2023-01-17T07:15:08.358Z,93728.22
2023-01-17T07:17:35.077Z,93728.34
2023-01-17T07:20:01.425Z,93730.00
2023-01-17T07:22:27.744Z,93728.44
2023-01-17T07:24:58.319Z,93717.41
2023-01-17T07:27:25.720Z,93714.84
2023-01-17T07:29:54.123Z,93710.31
2023-01-17T07:32:20.677Z,93712.25
2023-01-17T07:34:47.047Z,93710.63
2023-01-17T07:37:15.189Z,93704.81
2023-01-17T07:39:41.900Z,93703.03
2023-01-17T07:42:09.030Z,93694.59
2023-01-17T07:44:35.349Z,93688.31
2023-01-17T07:47:01.716Z,93681.66
2023-01-17T07:49:28.072Z,93689.59
2023-01-17T07:51:55.157Z,93689.59
2023-01-17T07:54:21.634Z,93707.88
2023-01-17T07:56:47.948Z,93709.50
2023-01-17T07:59:14.266Z,93706.25
2023-01-17T08:01:40.672Z,93709.16
2023-01-17T08:04:07.238Z,93699.28
2023-01-17T08:06:33.642Z,93694.75
2023-01-17T08:08:59.972Z,93693.94
2023-01-17T08:11:26.630Z,93692.47
2023-01-17T08:13:59.996Z,93678.22
2023-01-17T08:16:28.425Z,93667.38
2023-01-17T08:18:55.633Z,93664.63
2023-01-17T08:21:22.615Z,93639.66
2023-01-17T08:23:50.332Z,93636.41
2023-01-17T08:26:24.181Z,93637.41
2023-01-17T08:29:00.264Z,93634.81
2023-01-17T08:31:28.353Z,93639.69
2023-01-17T08:33:54.811Z,93638.25
2023-01-17T08:36:21.183Z,93636.00
2023-01-17T08:38:50.770Z,93638.41
2023-01-17T08:41:17.083Z,93646.66
2023-01-17T08:43:43.641Z,93643.09
2023-01-17T08:46:10.020Z,93639.38
2023-01-17T08:48:36.392Z,93634.84
2023-01-17T08:51:02.795Z,93625.00
2023-01-17T08:53:29.164Z,93610.75
2023-01-17T08:56:00.595Z,93609.91
2023-01-17T08:58:30.576Z,93606.97
2023-01-17T09:01:05.488Z,93602.94
2023-01-17T09:03:33.027Z,93594.50
2023-01-17T09:06:07.980Z,93583.03
2023-01-17T09:08:34.937Z,93565.84
2023-01-17T09:11:06.558Z,93571.00
2023-01-17T09:13:32.915Z,93564.84
2023-01-17T09:16:00.110Z,93566.84
2023-01-17T09:18:27.574Z,93565.00
2023-01-17T09:20:55.124Z,93574.09
2023-01-17T09:23:22.729Z,93574.88
2023-01-17T09:25:56.235Z,93571.63
2023-01-17T09:28:23.559Z,93572.44
2023-01-17T09:30:50.664Z,93569.66
2023-01-17T09:33:17.653Z,93561.66
2023-01-17T09:35:45.101Z,93561.19
2023-01-17T09:38:12.257Z,93562.25
2023-01-17T09:40:44.148Z,93559.91
2023-01-17T09:43:30.462Z,93561.53
2023-01-17T09:45:57.034Z,93560.78
2023-01-17T09:48:37.381Z,93563.69
2023-01-17T09:51:12.308Z,93560.44
2023-01-17T09:53:41.445Z,93561.50
2023-01-17T09:56:14.260Z,93560.59
2023-01-17T09:58:52.587Z,93558.28
2023-01-17T10:01:22.149Z,93556.78
2023-01-17T10:04:03.674Z,93569.00
2023-01-17T10:06:51.887Z,93565.84
2023-01-17T10:09:37.470Z,93565.25
2023-01-17T10:12:29.356Z,93568.09
2023-01-17T10:15:31.270Z,93560.19
2023-01-17T10:18:35.330Z,93553.41
2023-01-17T10:21:07.746Z,93551.25
2023-01-17T10:23:39.996Z,93553.00
2023-01-17T10:26:18.492Z,93561.59
2023-01-17T10:28:48.703Z,93563.50
2023-01-17T10:31:22.969Z,93550.13
2023-01-17T10:33:57.607Z,93545.56
2023-01-17T10:36:27.040Z,93548.06
2023-01-17T10:39:01.821Z,93529.28
2023-01-17T10:41:40.136Z,93517.78
2023-01-17T10:44:25.015Z,93510.16
2023-01-17T10:46:54.400Z,93499.78
2023-01-17T10:49:26.130Z,93496.72
2023-01-17T10:52:21.974Z,93477.25
2023-01-17T10:54:53.396Z,93485.22
2023-01-17T10:57:25.058Z,93466.66
2023-01-17T10:59:52.360Z,93473.84
2023-01-17T11:02:30.197Z,93475.53
2023-01-17T11:05:00.928Z,93466.03
2023-01-17T11:07:28.747Z,93458.31
2023-01-17T11:09:57.065Z,93457.09
2023-01-17T11:12:40.009Z,93449.34
2023-01-17T11:15:09.148Z,93455.31
2023-01-17T11:17:38.572Z,93449.66
2023-01-17T11:20:32.597Z,93449.22
2023-01-17T11:23:14.347Z,93443.03
2023-01-17T11:26:05.958Z,93435.16
2023-01-17T11:28:34.781Z,93434.63
2023-01-17T11:31:05.022Z,93441.06
2023-01-17T11:33:45.871Z,93435.88
2023-01-17T11:36:38.277Z,93444.56
2023-01-17T11:39:21.163Z,93432.31
2023-01-17T11:41:47.971Z,93430.59
2023-01-17T11:44:28.149Z,93423.44
2023-01-17T11:47:19.086Z,93418.25
2023-01-17T11:49:47.809Z,93418.41
2023-01-17T11:52:26.060Z,93413.66
2023-01-17T11:54:55.118Z,93412.97
2023-01-17T11:57:32.115Z,93407.50
2023-01-17T12:00:23.071Z,93407.31
2023-01-17T12:03:08.191Z,93407.09
2023-01-17T12:05:53.550Z,93394.19
2023-01-17T12:08:28.023Z,93390.69
2023-01-17T12:11:02.951Z,93395.06
2023-01-17T12:14:17.639Z,93385.88
2023-01-17T12:17:14.731Z,93379.34
2023-01-17T12:20:01.584Z,93379.59
2023-01-17T12:22:46.341Z,93370.38
2023-01-17T12:25:26.703Z,93355.63
2023-01-17T12:28:46.119Z,93343.00
2023-01-17T12:31:24.412Z,93324.94
2023-01-17T12:33:59.656Z,93316.16
2023-01-17T12:36:38.161Z,93306.75
2023-01-17T12:39:07.755Z,93302.00
2023-01-17T12:41:56.547Z,93316.13
2023-01-17T12:44:42.459Z,93324.69
2023-01-17T12:47:09.255Z,93330.00
2023-01-17T12:50:04.285Z,93339.53
2023-01-17T12:53:21.092Z,93329.03
2023-01-17T12:55:59.524Z,93308.72
2023-01-17T12:58:31.000Z,93306.88
2023-01-17T13:01:13.489Z,93316.75
2023-01-17T13:03:53.613Z,93305.16
2023-01-17T13:06:45.267Z,93309.13
2023-01-17T13:09:16.826Z,93299.72
2023-01-17T13:11:49.613Z,93301.75
2023-01-17T13:14:16.386Z,93302.03
2023-01-17T13:16:58.493Z,93300.16
2023-01-17T13:19:43.638Z,93295.13
2023-01-17T13:22:17.352Z,93283.00
2023-01-17T13:25:05.132Z,93281.97
2023-01-17T13:27:58.021Z,93290.22
2023-01-17T13:30:33.086Z,93290.47
2023-01-17T13:33:15.253Z,93298.34
2023-01-17T13:35:58.073Z,93295.06
2023-01-17T13:38:40.016Z,93296.69
2023-01-17T13:41:22.411Z,93296.59
2023-01-17T13:44:07.447Z,93295.94
2023-01-17T13:46:55.561Z,93304.22
2023-01-17T13:49:34.061Z,93304.66
2023-01-17T13:52:12.014Z,93312.16
2023-01-17T13:54:50.252Z,93304.16
2023-01-17T13:57:28.510Z,93317.31
2023-01-17T13:59:57.231Z,93320.06
2023-01-17T14:02:32.611Z,93326.00
2023-01-17T14:05:05.025Z,93326.19
2023-01-17T14:07:34.395Z,93334.38
2023-01-17T14:10:00.805Z,93344.88
2023-01-17T14:12:32.336Z,93343.34
2023-01-17T14:15:00.961Z,93348.94
2023-01-17T14:17:34.990Z,93352.22
2023-01-17T14:20:04.264Z,93357.53
2023-01-17T14:22:37.902Z,93353.91
2023-01-17T14:25:17.367Z,93346.03
2023-01-17T14:27:43.623Z,93348.19
2023-01-17T14:30:27.833Z,93357.66
2023-01-17T14:33:14.103Z,93365.94
2023-01-17T14:35:54.647Z,93362.09
2023-01-17T14:38:22.594Z,93355.28
2023-01-17T14:41:02.959Z,93348.94
2023-01-17T14:43:32.908Z,93352.66
2023-01-17T14:46:32.312Z,93349.25
2023-01-17T14:49:05.679Z,93350.63
2023-01-17T14:51:35.556Z,93345.63
2023-01-17T14:54:06.172Z,93338.69
2023-01-17T14:56:33.267Z,93345.03
2023-01-17T14:59:06.981Z,93348.25
2023-01-17T15:01:35.569Z,93345.41
2023-01-17T15:04:01.973Z,93345.50
2023-01-17T15:06:40.377Z,93353.44
2023-01-17T15:09:19.368Z,93351.91
2023-01-17T15:11:48.009Z,93350.06
2023-01-17T15:14:27.585Z,93358.97
2023-01-17T15:16:54.397Z,93345.03
2023-01-17T15:19:21.877Z,93353.06
2023-01-17T15:21:51.598Z,93346.94
2023-01-17T15:24:22.506Z,93353.03
2023-01-17T15:26:49.133Z,93343.69
2023-01-17T15:29:25.975Z,93345.06
2023-01-17T15:31:55.405Z,93347.94
2023-01-17T15:34:26.989Z,93344.03
2023-01-17T15:36:57.852Z,93341.00
2023-01-17T15:39:30.173Z,93351.00
2023-01-17T15:42:03.239Z,93353.28
2023-01-17T15:44:48.545Z,93358.53
2023-01-17T15:47:38.825Z,93350.91
2023-01-17T15:50:27.531Z,93361.38
2023-01-17T15:53:00.851Z,93364.06
2023-01-17T15:55:35.022Z,93363.88
2023-01-17T15:58:02.565Z,93366.38
2023-01-17T16:00:39.153Z,93367.00
2023-01-17T16:03:26.136Z,93366.00
2023-01-17T16:05:53.953Z,93363.72
2023-01-17T16:08:34.093Z,93370.66
2023-01-17T16:11:02.768Z,93371.97
2023-01-17T16:13:31.703Z,93372.59
2023-01-17T16:16:15.630Z,93376.88
2023-01-17T16:18:43.008Z,93377.97
2023-01-17T16:21:19.997Z,93376.59
2023-01-17T16:23:47.049Z,93388.84
2023-01-17T16:26:13.815Z,93396.72
2023-01-17T16:28:40.178Z,93397.13
2023-01-17T16:31:06.545Z,93406.72
2023-01-17T16:33:32.981Z,93405.06
2023-01-17T16:35:59.356Z,93414.66
2023-01-17T16:38:25.938Z,93412.00
2023-01-17T16:40:53.984Z,93418.31
2023-01-17T16:43:20.412Z,93408.09
2023-01-17T16:45:50.273Z,93411.03
2023-01-17T16:48:19.168Z,93416.59
2023-01-17T16:50:50.249Z,93413.72
2023-01-17T16:53:18.167Z,93407.34
2023-01-17T16:55:44.701Z,93414.81
2023-01-17T16:58:11.251Z,93412.47
2023-01-17T17:00:40.069Z,93416.69
2023-01-17T17:03:07.064Z,93414.13
2023-01-17T17:05:34.064Z,93424.13
2023-01-17T17:08:00.930Z,93424.81
2023-01-17T17:10:27.713Z,93426.34
2023-01-17T17:12:54.114Z,93440.53
2023-01-17T17:15:21.404Z,93453.84
2023-01-17T17:17:48.023Z,93448.09
2023-01-17T17:20:15.359Z,93450.53
2023-01-17T17:22:43.936Z,93451.34
2023-01-17T17:25:15.647Z,93452.94
2023-01-17T17:27:42.147Z,93461.66
2023-01-17T17:30:10.117Z,93451.47
2023-01-17T17:32:36.467Z,93460.72
2023-01-17T17:35:02.995Z,93453.25
2023-01-17T17:37:29.397Z,93457.13
2023-01-17T17:39:56.860Z,93462.28
2023-01-17T17:42:23.426Z,93469.06
2023-01-17T17:44:49.802Z,93462.63
2023-01-17T17:47:16.324Z,93468.84
2023-01-17T17:49:43.351Z,93468.28
2023-01-17T17:52:10.046Z,93469.31
2023-01-17T17:54:36.634Z,93465.19
2023-01-17T17:57:03.374Z,93475.00
2023-01-17T17:59:29.968Z,93468.38
2023-01-17T18:01:56.945Z,93475.78
2023-01-17T18:04:23.342Z,93470.50
2023-01-17T18:06:49.680Z,93469.50
2023-01-17T18:09:16.291Z,93461.97
2023-01-17T18:11:43.548Z,93457.47
2023-01-17T18:14:13.490Z,93480.47
2023-01-17T18:16:42.546Z,93478.56
2023-01-17T18:19:23.058Z,93485.25
2023-01-17T18:21:51.193Z,93487.09
2023-01-17T18:24:20.706Z,93487.16
2023-01-17T18:26:52.763Z,93489.91
2023-01-17T18:29:20.984Z,93483.44
2023-01-17T18:31:50.108Z,93481.00
2023-01-17T18:34:23.736Z,93474.00
2023-01-17T18:36:50.815Z,93473.72
2023-01-17T18:39:20.103Z,93490.13
2023-01-17T18:41:47.186Z,93502.78
2023-01-17T18:44:13.568Z,93499.72
2023-01-17T18:46:41.846Z,93490.81
2023-01-17T18:49:10.993Z,93502.31
2023-01-17T18:51:37.492Z,93510.28
2023-01-17T18:54:06.895Z,93502.69
2023-01-17T18:56:34.120Z,93509.63
2023-01-17T18:59:01.351Z,93506.09
2023-01-17T19:01:29.870Z,93518.84
2023-01-17T19:03:57.852Z,93520.47
2023-01-17T19:06:30.350Z,93525.47
2023-01-17T19:08:58.504Z,93523.97
2023-01-17T19:11:25.657Z,93526.81
2023-01-17T19:13:53.243Z,93532.00
2023-01-17T19:16:26.293Z,93524.28
2023-01-17T19:18:52.802Z,93538.81
2023-01-17T19:21:21.457Z,93518.19
2023-01-17T19:23:48.579Z,93516.59
2023-01-17T19:26:17.104Z,93509.81
2023-01-17T19:28:46.041Z,93512.88
2023-01-17T19:31:15.667Z,93515.75
2023-01-17T19:33:45.552Z,93519.41
2023-01-17T19:36:18.396Z,93524.47
2023-01-17T19:39:02.991Z,93532.69
2023-01-17T19:41:30.704Z,93524.81
2023-01-17T19:43:59.295Z,93521.72
2023-01-17T19:46:27.272Z,93514.25
2023-01-17T19:48:55.078Z,93516.56
2023-01-17T19:51:22.294Z,93516.78
2023-01-17T19:53:48.649Z,93529.38
2023-01-17T19:56:18.032Z,93521.00
2023-01-17T19:58:46.134Z,93541.91
2023-01-17T20:01:18.292Z,93535.66
2023-01-17T20:03:45.997Z,93535.19
2023-01-17T20:06:16.703Z,93555.03
2023-01-17T20:08:43.489Z,93537.44
2023-01-17T20:11:15.505Z,93546.00
2023-01-17T20:13:42.332Z,93556.00
2023-01-17T20:16:11.120Z,93567.63
2023-01-17T20:18:38.353Z,93564.66
2023-01-17T20:21:07.082Z,93561.25
2023-01-17T20:23:35.380Z,93560.66
2023-01-17T20:26:03.338Z,93552.78
2023-01-17T20:28:31.076Z,93548.09
2023-01-17T20:30:57.411Z,93551.63
2023-01-17T20:33:24.180Z,93558.22
2023-01-17T20:36:04.856Z,93550.72
2023-01-17T20:38:43.656Z,93549.38
2023-01-17T20:41:16.999Z,93542.88
2023-01-17T20:43:45.353Z,93542.00
2023-01-17T20:46:12.211Z,93537.66
2023-01-17T20:48:44.725Z,93526.34
2023-01-17T20:51:11.878Z,93529.56
2023-01-17T20:53:39.733Z,93521.75
2023-01-17T20:56:08.623Z,93523.78
2023-01-17T20:58:35.214Z,93527.22
2023-01-17T21:01:02.099Z,93524.19
2023-01-17T21:03:29.308Z,93530.69
2023-01-17T21:06:03.741Z,93527.22
2023-01-17T21:08:31.226Z,93524.31
2023-01-17T21:10:57.625Z,93524.97
2023-01-17T21:13:24.496Z,93527.25
2023-01-17T21:15:51.902Z,93535.63
2023-01-17T21:18:20.072Z,93530.50
2023-01-17T21:20:47.307Z,93539.84
2023-01-17T21:23:20.248Z,93546.41
2023-01-17T21:25:55.418Z,93542.97
2023-01-17T21:28:23.784Z,93531.66
2023-01-17T21:30:50.456Z,93538.41
2023-01-17T21:33:17.637Z,93539.41
2023-01-17T21:35:44.745Z,93541.50
2023-01-17T21:38:12.603Z,93541.66
2023-01-17T21:40:39.380Z,93554.38
2023-01-17T21:43:05.770Z,93552.19
2023-01-17T21:45:36.639Z,93562.97
2023-01-17T21:48:03.086Z,93563.31
2023-01-17T21:50:33.580Z,93571.53
2023-01-17T21:53:00.264Z,93572.13
2023-01-17T21:55:45.016Z,93574.81
2023-01-17T21:58:34.763Z,93570.03
2023-01-17T22:01:17.547Z,93566.84
2023-01-17T22:03:52.714Z,93566.13
2023-01-17T22:06:20.434Z,93566.59
2023-01-17T22:08:47.440Z,93565.31
2023-01-17T22:11:20.262Z,93562.88
2023-01-17T22:13:47.213Z,93574.00
2023-01-17T22:16:16.082Z,93571.94
2023-01-17T22:18:43.348Z,93574.31
2023-01-17T22:21:15.589Z,93576.72
2023-01-17T22:23:50.311Z,93573.34
2023-01-17T22:26:17.168Z,93564.84
2023-01-17T22:28:43.999Z,93579.13
2023-01-17T22:31:22.742Z,93578.34
2023-01-17T22:34:03.662Z,93576.38
2023-01-17T22:36:32.246Z,93579.13
2023-01-17T22:38:59.003Z,93579.19
2023-01-17T22:41:29.567Z,93593.34
2023-01-17T22:43:58.622Z,93577.38
2023-01-17T22:46:30.755Z,93586.22
2023-01-17T22:48:57.855Z,93583.84
2023-01-17T22:51:26.205Z,93580.31
2023-01-17T22:53:54.797Z,93578.97
2023-01-17T22:56:26.581Z,93580.59
2023-01-17T22:58:53.378Z,93582.72
2023-01-17T23:01:25.388Z,93587.66
2023-01-17T23:03:54.468Z,93589.19
2023-01-17T23:06:23.492Z,93581.16
2023-01-17T23:08:52.017Z,93580.88
2023-01-17T23:11:38.739Z,93584.44
2023-01-17T23:14:05.769Z,93580.56
2023-01-17T23:16:50.670Z,93596.72
2023-01-17T23:19:22.663Z,93596.34
2023-01-17T23:22:10.700Z,93594.69
2023-01-17T23:24:42.901Z,93585.38
2023-01-17T23:27:34.047Z,93585.69
2023-01-17T23:30:00.388Z,93589.25
2023-01-17T23:32:27.232Z,93594.72
2023-01-17T23:34:53.733Z,93593.19
2023-01-17T23:37:20.107Z,93587.06
2023-01-17T23:39:46.454Z,93587.72
2023-01-17T23:42:31.381Z,93598.03
2023-01-17T23:44:57.712Z,93593.53
2023-01-17T23:47:24.091Z,93606.28
2023-01-17T23:49:50.463Z,93607.41
2023-01-17T23:52:16.900Z,93588.31
2023-01-17T23:54:43.251Z,93595.59
2023-01-17T23:57:09.599Z,93613.44
2023-01-17T23:59:36.135Z,93602.78
